Greenwell Springs, Louisiana
Current Conditions -  °F | °C
As of 8:53 PM on Monday 22 Dec 2014 (Local Time) from KBTR Reporting Station
Overcast Overcast  
Wind Chill: 69°   Ceiling: 1300
Heat Index: 69°   Visibility: 10mi
Dew Point: 65°   Wind: 14mph
Humidity: 87%   Direction: 210°SSW
Pressure: 29.7"   Gusts: NA
Location:  30.54°N, 91°W
Report Text: KBTR 230253Z 21012KT 10SM BKN013 BKN018 OVC028 21/18 A2970 RMK AO2 SLP057 T02060183 51004
Loading
Personal Weather Stations






























Interactive Weather Map New forecast layout! Learn more

10-Day Weather Forecast

Advertisements
Track Severe Weather on mobile